createdAt,value
2019-05-05T00:01:17.280Z,1.80
2019-05-05T00:03:50.905Z,1.60
2019-05-05T00:06:17.282Z,1.93
2019-05-05T00:08:45.576Z,1.80
2019-05-05T00:11:15.400Z,1.77
2019-05-05T00:13:46.056Z,1.90
2019-05-05T00:16:26.466Z,1.53
2019-05-05T00:18:54.276Z,2.00
2019-05-05T00:21:20.625Z,1.43
2019-05-05T00:23:46.807Z,2.13
2019-05-05T00:26:14.960Z,1.43
2019-05-05T00:28:41.252Z,1.57
2019-05-05T00:31:07.434Z,1.47
2019-05-05T00:33:34.339Z,1.53
2019-05-05T00:36:00.697Z,1.87
2019-05-05T00:38:26.851Z,1.67
2019-05-05T00:40:55.037Z,1.80
2019-05-05T00:43:21.274Z,1.50
2019-05-05T00:45:49.353Z,1.60
2019-05-05T00:48:24.506Z,1.73
2019-05-05T00:50:51.923Z,1.47
2019-05-05T00:53:18.399Z,1.50
2019-05-05T00:55:44.702Z,1.43
2019-05-05T00:58:10.875Z,1.53
2019-05-05T01:00:41.788Z,1.50
2019-05-05T01:03:08.122Z,1.87
2019-05-05T01:05:51.120Z,1.60
2019-05-05T01:08:19.324Z,1.60
2019-05-05T01:10:45.603Z,2.10
2019-05-05T01:13:11.754Z,1.50
2019-05-05T01:15:38.061Z,1.60
2019-05-05T01:18:04.710Z,2.33
2019-05-05T01:20:31.092Z,1.83
2019-05-05T01:22:57.302Z,1.60
2019-05-05T01:25:25.385Z,1.90
2019-05-05T01:27:51.934Z,1.53
2019-05-05T01:30:21.211Z,1.70
2019-05-05T01:32:49.280Z,1.30
2019-05-05T01:35:15.557Z,1.73
2019-05-05T01:37:46.148Z,1.70
2019-05-05T01:40:32.771Z,1.80
2019-05-05T01:42:59.054Z,1.90
2019-05-05T01:45:25.373Z,1.60
2019-05-05T01:47:51.543Z,1.50
2019-05-05T01:50:21.246Z,1.60
2019-05-05T01:52:45.803Z,1.77
2019-05-05T01:55:14.539Z,1.43
2019-05-05T01:57:40.604Z,1.50
2019-05-05T02:00:07.263Z,1.73
2019-05-05T02:02:34.283Z,1.40
2019-05-05T02:05:00.669Z,1.37
2019-05-05T02:07:26.820Z,1.50
2019-05-05T02:09:55.196Z,2.10
2019-05-05T02:12:21.112Z,1.30
2019-05-05T02:14:47.266Z,1.50
2019-05-05T02:17:14.446Z,1.60
2019-05-05T02:19:40.957Z,1.60
2019-05-05T02:22:07.139Z,1.50
2019-05-05T02:24:35.353Z,1.20
2019-05-05T02:27:01.943Z,1.60
2019-05-05T02:29:32.884Z,1.20
2019-05-05T02:32:18.517Z,1.50
2019-05-05T02:34:49.095Z,1.30
2019-05-05T02:37:16.082Z,1.50
2019-05-05T02:39:52.627Z,1.47
2019-05-05T02:42:11.323Z,1.30
2019-05-05T02:44:38.497Z,1.30
2019-05-05T02:47:29.093Z,1.60
2019-05-05T02:49:58.848Z,1.53
2019-05-05T02:52:25.615Z,1.20
2019-05-05T02:54:53.644Z,1.63
2019-05-05T02:57:21.198Z,1.93
2019-05-05T02:59:54.000Z,1.70
2019-05-05T03:02:23.661Z,1.70
2019-05-05T03:04:50.654Z,1.77
2019-05-05T03:07:17.717Z,1.70
2019-05-05T03:09:45.253Z,2.10
2019-05-05T03:12:14.786Z,2.20
2019-05-05T03:14:44.499Z,1.73
2019-05-05T03:17:14.137Z,1.57
2019-05-05T03:19:40.164Z,1.80
2019-05-05T03:22:06.828Z,1.50
2019-05-05T03:24:34.109Z,1.63
2019-05-05T03:27:00.897Z,1.57
2019-05-05T03:29:27.354Z,1.73
2019-05-05T03:31:56.213Z,1.67
2019-05-05T03:34:23.987Z,1.47
2019-05-05T03:36:53.467Z,1.40
2019-05-05T03:42:01.273Z,1.50
2019-05-05T03:44:39.119Z,1.73
2019-05-05T03:47:05.400Z,1.30
2019-05-05T03:49:33.677Z,1.77
2019-05-05T03:52:00.032Z,1.90
2019-05-05T03:54:26.307Z,1.90
2019-05-05T03:57:07.723Z,2.20
2019-05-05T03:59:35.095Z,1.83
2019-05-05T04:02:03.961Z,1.60
2019-05-05T04:04:33.555Z,2.17
2019-05-05T04:07:00.693Z,2.13
2019-05-05T04:09:27.054Z,2.20
2019-05-05T04:11:53.947Z,2.47
2019-05-05T04:14:20.857Z,1.90
2019-05-05T04:16:49.047Z,2.30
2019-05-05T04:19:17.136Z,2.23
2019-05-05T04:21:44.881Z,2.43
2019-05-05T04:24:11.287Z,2.27
2019-05-05T04:26:37.475Z,2.10
2019-05-05T04:29:05.374Z,2.50
2019-05-05T04:31:31.980Z,2.40
2019-05-05T04:33:58.173Z,2.80
2019-05-05T04:36:24.333Z,2.57
2019-05-05T04:38:50.507Z,2.90
2019-05-05T04:41:16.693Z,2.30
2019-05-05T04:43:44.172Z,2.70
2019-05-05T04:46:10.560Z,3.17
2019-05-05T04:48:41.444Z,3.13
2019-05-05T04:51:09.517Z,3.10
2019-05-05T04:53:37.594Z,3.00
2019-05-05T04:56:04.293Z,3.13
2019-05-05T04:58:30.768Z,3.17
2019-05-05T05:00:57.052Z,2.80
2019-05-05T05:03:34.633Z,3.17
2019-05-05T05:06:05.502Z,3.20
2019-05-05T05:08:33.688Z,2.77
2019-05-05T05:10:59.782Z,3.20
2019-05-05T05:13:25.956Z,2.83
2019-05-05T05:15:53.940Z,3.00
2019-05-05T05:18:20.452Z,2.87
2019-05-05T05:20:46.628Z,2.73
2019-05-05T05:23:14.175Z,2.00
2019-05-05T05:25:40.774Z,2.83
2019-05-05T05:28:06.948Z,2.97
2019-05-05T05:30:34.691Z,3.07
2019-05-05T05:33:01.229Z,2.40
2019-05-05T05:35:27.381Z,3.13
2019-05-05T05:37:55.932Z,3.00
2019-05-05T05:40:23.697Z,2.97
2019-05-05T05:42:49.946Z,3.17
2019-05-05T05:45:21.010Z,3.60
2019-05-05T05:48:05.407Z,3.23
2019-05-05T05:50:33.989Z,3.10
2019-05-05T05:53:00.402Z,2.93
2019-05-05T05:55:26.621Z,2.70
2019-05-05T05:57:54.224Z,3.97
2019-05-05T06:00:20.749Z,3.20
2019-05-05T06:02:47.045Z,3.70
2019-05-05T06:05:14.767Z,3.80
2019-05-05T06:07:41.177Z,3.63
2019-05-05T06:10:21.106Z,2.67
2019-05-05T06:12:36.246Z,3.77
2019-05-05T06:15:03.984Z,3.67
2019-05-05T06:17:30.428Z,4.20
2019-05-05T06:19:56.676Z,3.77
2019-05-05T06:22:29.371Z,3.03
2019-05-05T06:24:50.957Z,3.83
2019-05-05T06:27:17.108Z,3.40
2019-05-05T06:29:43.817Z,4.77
2019-05-05T06:32:10.401Z,4.57
2019-05-05T06:34:36.557Z,4.00
2019-05-05T06:37:04.200Z,4.10
2019-05-05T06:39:30.840Z,3.63
2019-05-05T06:42:01.443Z,4.43
2019-05-05T06:44:41.234Z,4.00
2019-05-05T06:47:13.502Z,4.20
2019-05-05T06:49:39.818Z,4.23
2019-05-05T06:52:06.121Z,3.60
2019-05-05T06:54:32.312Z,3.90
2019-05-05T06:56:58.492Z,3.27
2019-05-05T06:59:24.709Z,3.17
2019-05-05T07:01:50.979Z,4.13
2019-05-05T07:04:17.133Z,3.97
2019-05-05T07:06:53.435Z,3.43
2019-05-05T07:09:13.393Z,3.20
2019-05-05T07:11:39.564Z,3.53
2019-05-05T07:14:05.764Z,3.73
2019-05-05T07:16:31.932Z,3.00
2019-05-05T07:18:58.104Z,3.30
2019-05-05T07:21:24.416Z,2.80
2019-05-05T07:23:53.708Z,3.30
2019-05-05T07:26:20.156Z,2.27
2019-05-05T07:28:46.352Z,3.27
2019-05-05T07:31:14.345Z,3.13
2019-05-05T07:33:40.977Z,2.70
2019-05-05T07:36:09.087Z,1.77
2019-05-05T07:38:35.266Z,2.60
2019-05-05T07:41:03.555Z,2.33
2019-05-05T07:43:29.638Z,2.40
2019-05-05T07:45:55.816Z,2.93
2019-05-05T07:48:24.172Z,2.27
2019-05-05T07:50:59.761Z,2.90
2019-05-05T07:53:18.178Z,2.60
2019-05-05T07:55:44.343Z,2.57
2019-05-05T07:58:10.555Z,2.33
2019-05-05T08:00:36.718Z,2.40
2019-05-05T08:03:03.704Z,2.77
2019-05-05T08:05:30.095Z,2.40
2019-05-05T08:07:56.263Z,3.03
2019-05-05T08:10:24.152Z,3.40
2019-05-05T08:12:50.424Z,3.00
2019-05-05T08:15:18.604Z,3.33
2019-05-05T08:18:04.547Z,3.27
2019-05-05T08:20:33.907Z,3.30
2019-05-05T08:23:01.025Z,4.13
2019-05-05T08:25:39.161Z,3.57
2019-05-05T08:28:04.163Z,2.60
2019-05-05T08:30:33.728Z,3.30
2019-05-05T08:33:00.414Z,4.00
2019-05-05T08:35:26.571Z,4.50
2019-05-05T08:37:54.251Z,4.23
2019-05-05T08:40:20.729Z,3.47
2019-05-05T08:42:46.889Z,2.70
2019-05-05T08:45:13.895Z,3.23
2019-05-05T08:47:40.303Z,3.30
2019-05-05T08:50:07.482Z,3.00
2019-05-05T08:52:34.279Z,3.43
2019-05-05T08:55:00.766Z,4.03
2019-05-05T08:57:26.949Z,3.73
2019-05-05T08:59:54.522Z,3.70
2019-05-05T09:02:20.885Z,3.80
2019-05-05T09:04:47.078Z,3.53
2019-05-05T09:07:13.844Z,4.07
2019-05-05T09:09:40.161Z,3.90
2019-05-05T09:12:06.346Z,4.17
2019-05-05T09:14:34.410Z,4.03
2019-05-05T09:17:00.742Z,3.10
2019-05-05T09:19:26.899Z,3.90
2019-05-05T09:21:54.181Z,2.73
2019-05-05T09:24:28.165Z,3.13
2019-05-05T09:27:07.888Z,2.67
2019-05-05T09:29:35.987Z,3.30
2019-05-05T09:32:04.037Z,2.80
2019-05-05T09:34:30.333Z,2.90
2019-05-05T09:36:57.417Z,2.50
2019-05-05T09:39:24.008Z,2.67
2019-05-05T09:41:50.375Z,2.80
2019-05-05T09:44:16.567Z,2.40
2019-05-05T09:46:44.489Z,2.30
2019-05-05T09:49:10.832Z,2.40
2019-05-05T09:51:37.148Z,2.60
2019-05-05T09:54:11.906Z,2.60
2019-05-05T09:56:31.561Z,2.27
2019-05-05T09:58:59.671Z,2.63
2019-05-05T10:01:25.935Z,2.60
2019-05-05T10:03:54.030Z,2.80
2019-05-05T10:06:20.235Z,2.20
2019-05-05T10:08:46.397Z,2.93
2019-05-05T10:11:12.551Z,2.57
2019-05-05T10:13:38.778Z,1.80
2019-05-05T10:16:06.121Z,2.93
2019-05-05T10:18:35.569Z,3.40
2019-05-05T10:21:00.405Z,3.40
2019-05-05T10:23:28.474Z,3.17
2019-05-05T10:25:56.559Z,3.00
2019-05-05T10:28:23.972Z,2.97
2019-05-05T10:30:50.311Z,3.43
2019-05-05T10:33:16.490Z,3.03
2019-05-05T10:35:43.865Z,2.27
2019-05-05T10:38:10.237Z,2.87
2019-05-05T10:40:36.406Z,2.53
2019-05-05T10:43:04.368Z,2.00
2019-05-05T10:45:31.046Z,2.60
2019-05-05T10:47:57.352Z,2.70
2019-05-05T10:50:24.623Z,2.50
2019-05-05T10:52:53.561Z,2.70
2019-05-05T10:55:19.391Z,3.80
2019-05-05T10:57:45.699Z,2.40
2019-05-05T11:00:15.552Z,2.47
2019-05-05T11:02:42.687Z,2.87
2019-05-05T11:05:09.515Z,2.93
2019-05-05T11:07:35.873Z,3.40
2019-05-05T11:10:04.128Z,2.40
2019-05-05T11:12:30.451Z,2.43
2019-05-05T11:14:56.606Z,2.87
2019-05-05T11:17:24.756Z,2.60
2019-05-05T11:19:50.890Z,2.77
2019-05-05T11:22:17.046Z,2.30
2019-05-05T11:24:56.720Z,2.23
2019-05-05T11:27:11.423Z,3.50
2019-05-05T11:29:39.509Z,3.57
2019-05-05T11:32:07.563Z,3.13
2019-05-05T11:34:33.889Z,3.33
2019-05-05T11:37:11.000Z,3.67
2019-05-05T11:39:37.297Z,2.70
2019-05-05T11:42:04.420Z,2.93
2019-05-05T11:44:30.728Z,3.50
2019-05-05T11:46:56.951Z,3.83
2019-05-05T11:49:24.479Z,3.47
2019-05-05T11:51:50.901Z,2.67
2019-05-05T11:54:17.112Z,4.00
2019-05-05T11:56:44.679Z,3.00
2019-05-05T11:59:11.137Z,2.83
2019-05-05T12:01:37.443Z,3.27
2019-05-05T12:04:05.555Z,2.43
2019-05-05T12:06:33.846Z,4.00
2019-05-05T12:09:01.743Z,2.63
2019-05-05T12:11:27.919Z,3.37
2019-05-05T12:13:54.584Z,3.47
2019-05-05T12:16:30.925Z,3.63
2019-05-05T12:18:57.098Z,3.47
2019-05-05T12:21:24.245Z,2.70
2019-05-05T12:23:50.651Z,2.70
2019-05-05T12:26:21.724Z,3.53
2019-05-05T12:28:49.801Z,2.63
2019-05-05T12:31:17.901Z,2.77
2019-05-05T12:33:44.299Z,3.43
2019-05-05T12:36:10.647Z,3.53
2019-05-05T12:38:36.837Z,3.87
2019-05-05T12:41:04.242Z,3.37
2019-05-05T12:43:30.691Z,2.97
2019-05-05T12:46:10.535Z,2.43
2019-05-05T12:48:38.598Z,2.90
2019-05-05T12:51:04.775Z,2.17
2019-05-05T12:53:30.972Z,3.37
2019-05-05T12:55:57.147Z,3.13
2019-05-05T12:58:23.346Z,3.13
2019-05-05T13:00:51.469Z,3.43
2019-05-05T13:03:17.746Z,2.50
2019-05-05T13:05:44.623Z,3.47
2019-05-05T13:08:11.066Z,3.10
2019-05-05T13:10:37.253Z,2.87
2019-05-05T13:13:03.866Z,2.57
2019-05-05T13:15:30.331Z,2.27
2019-05-05T13:17:56.504Z,2.27
2019-05-05T13:20:24.725Z,2.77
2019-05-05T13:22:58.661Z,2.20
2019-05-05T13:25:33.611Z,3.30
2019-05-05T13:28:00.005Z,2.37
2019-05-05T13:30:26.295Z,2.43
2019-05-05T13:32:54.416Z,2.83
2019-05-05T13:35:20.528Z,2.73
2019-05-05T13:37:46.929Z,2.50
2019-05-05T13:40:14.308Z,2.63
2019-05-05T13:42:40.483Z,2.00
2019-05-05T13:45:09.993Z,2.00
2019-05-05T13:47:36.156Z,2.33
2019-05-05T13:50:09.511Z,2.03
2019-05-05T13:52:35.792Z,1.70
2019-05-05T13:55:02.271Z,2.03
2019-05-05T13:57:28.451Z,2.10
2019-05-05T13:59:54.716Z,2.60
2019-05-05T14:02:20.920Z,2.10
2019-05-05T14:04:47.102Z,1.67
2019-05-05T14:07:14.352Z,2.63
2019-05-05T14:09:40.499Z,2.40
2019-05-05T14:12:06.693Z,1.80
2019-05-05T14:14:33.626Z,1.80
2019-05-05T14:17:00.063Z,1.70
2019-05-05T14:19:26.238Z,2.27
2019-05-05T14:21:53.843Z,1.77
2019-05-05T14:24:27.768Z,1.73
2019-05-05T14:26:54.294Z,2.33
2019-05-05T14:29:38.731Z,2.13
2019-05-05T14:32:05.857Z,2.17
2019-05-05T14:34:33.913Z,2.57
2019-05-05T14:37:18.573Z,1.80
2019-05-05T14:39:44.859Z,2.17
2019-05-05T14:42:11.041Z,4.03
2019-05-05T14:44:37.355Z,2.23
2019-05-05T14:47:03.787Z,1.90
2019-05-05T14:49:29.956Z,2.33
2019-05-05T14:51:56.151Z,2.33
2019-05-05T14:54:22.327Z,2.80
2019-05-05T14:56:48.509Z,2.10
2019-05-05T14:59:14.691Z,2.47
2019-05-05T15:01:40.847Z,3.00
2019-05-05T15:04:08.940Z,2.47
2019-05-05T15:06:37.057Z,1.83
2019-05-05T15:09:24.676Z,2.73
2019-05-05T15:12:09.669Z,2.40
2019-05-05T15:14:35.923Z,2.43
2019-05-05T15:17:03.684Z,2.10
2019-05-05T15:19:30.196Z,1.90
2019-05-05T15:21:56.382Z,1.73
2019-05-05T15:24:24.411Z,2.63
2019-05-05T15:26:54.304Z,2.07
2019-05-05T15:29:18.713Z,1.53
2019-05-05T15:31:44.869Z,2.57
2019-05-05T15:34:11.095Z,2.60
2019-05-05T15:36:37.274Z,2.30
2019-05-05T15:39:06.841Z,2.03
2019-05-05T15:41:34.127Z,2.53
2019-05-05T15:44:00.430Z,2.33
2019-05-05T15:46:26.585Z,1.13
2019-05-05T15:48:54.590Z,1.97
2019-05-05T15:51:20.869Z,2.37
2019-05-05T15:53:47.056Z,2.13
2019-05-05T15:56:13.952Z,2.30
2019-05-05T15:58:40.356Z,2.00
2019-05-05T16:01:06.550Z,1.50
2019-05-05T16:03:32.875Z,2.00
2019-05-05T16:05:59.067Z,2.70
2019-05-05T16:08:25.232Z,2.23
2019-05-05T16:10:54.426Z,2.27
2019-05-05T16:13:20.490Z,2.10
2019-05-05T16:15:49.163Z,1.63
2019-05-05T16:18:29.563Z,2.03
2019-05-05T16:20:57.638Z,2.70
2019-05-05T16:23:25.696Z,2.23
2019-05-05T16:25:54.108Z,2.53
2019-05-05T16:28:20.099Z,2.47
2019-05-05T16:30:46.359Z,2.30
2019-05-05T16:33:13.757Z,2.60
2019-05-05T16:35:40.355Z,1.77
2019-05-05T16:38:06.725Z,2.30
2019-05-05T16:40:33.850Z,2.00
2019-05-05T16:43:00.121Z,2.90
2019-05-05T16:45:26.307Z,1.50
2019-05-05T16:47:54.410Z,2.93
2019-05-05T16:50:20.584Z,2.30
2019-05-05T16:53:04.030Z,1.70
2019-05-05T16:55:34.366Z,2.23
2019-05-05T16:58:00.310Z,1.50
2019-05-05T17:00:26.604Z,2.40
2019-05-05T17:02:53.719Z,2.87
2019-05-05T17:05:19.959Z,2.40
2019-05-05T17:07:46.283Z,2.63
2019-05-05T17:10:13.812Z,3.40
2019-05-05T17:12:40.380Z,2.37
2019-05-05T17:15:08.775Z,2.67
2019-05-05T17:17:36.862Z,2.80
2019-05-05T17:20:07.367Z,2.20
2019-05-05T17:22:37.969Z,2.83
2019-05-05T17:25:05.330Z,2.33
2019-05-05T17:27:44.852Z,1.63
2019-05-05T17:29:59.601Z,1.57
2019-05-05T17:32:25.931Z,2.53
2019-05-05T17:34:53.996Z,1.70
2019-05-05T17:37:20.204Z,1.77
2019-05-05T17:39:48.260Z,2.03
2019-05-05T17:42:23.962Z,2.50
2019-05-05T17:44:57.683Z,1.80
2019-05-05T17:47:28.599Z,2.63
2019-05-05T17:49:59.198Z,2.67
2019-05-05T17:52:34.359Z,2.37
2019-05-05T17:55:04.571Z,2.20
2019-05-05T17:57:30.632Z,2.53
2019-05-05T17:59:56.957Z,2.03
2019-05-05T18:02:23.666Z,2.77
2019-05-05T18:04:50.071Z,2.60
2019-05-05T18:07:21.090Z,1.67
2019-05-05T18:10:00.185Z,2.57
2019-05-05T18:12:28.302Z,1.90
2019-05-05T18:14:57.397Z,2.23
2019-05-05T18:17:24.382Z,2.23
2019-05-05T18:19:50.769Z,2.27
2019-05-05T18:22:18.183Z,2.13
2019-05-05T18:24:44.696Z,2.33
2019-05-05T18:27:11.066Z,2.10
2019-05-05T18:29:37.326Z,2.30
2019-05-05T18:32:04.333Z,1.73
2019-05-05T18:34:30.812Z,1.67
2019-05-05T18:36:56.977Z,1.70
2019-05-05T18:39:24.715Z,1.90
2019-05-05T18:41:55.718Z,2.90
2019-05-05T18:44:24.199Z,1.90
2019-05-05T18:47:11.109Z,2.70
2019-05-05T18:49:37.136Z,1.73
2019-05-05T18:52:04.115Z,2.37
2019-05-05T18:54:30.486Z,2.10
2019-05-05T18:56:56.668Z,1.33
2019-05-05T18:59:23.983Z,2.13
2019-05-05T19:01:52.350Z,1.63
2019-05-05T19:04:23.208Z,1.63
2019-05-05T19:06:57.222Z,1.93
2019-05-05T19:09:24.924Z,2.23
2019-05-05T19:11:51.472Z,1.60
2019-05-05T19:14:17.685Z,2.00
2019-05-05T19:16:43.940Z,1.40
2019-05-05T19:19:10.111Z,1.87
2019-05-05T19:21:45.216Z,2.53
2019-05-05T19:24:11.387Z,3.80
2019-05-05T19:26:38.729Z,3.37
2019-05-05T19:29:05.249Z,2.10
2019-05-05T19:31:36.332Z,1.20
2019-05-05T19:34:03.855Z,2.40
2019-05-05T19:36:29.771Z,2.07
2019-05-05T19:38:56.264Z,2.20
2019-05-05T19:41:23.773Z,1.87
2019-05-05T19:43:54.692Z,1.30
2019-05-05T19:46:23.515Z,2.50
2019-05-05T19:48:49.925Z,1.93
2019-05-05T19:51:18.027Z,1.77
2019-05-05T19:53:44.814Z,1.83
2019-05-05T19:56:13.515Z,2.20
2019-05-05T19:58:39.832Z,2.00
2019-05-05T20:01:06.088Z,1.60
2019-05-05T20:03:34.669Z,2.03
2019-05-05T20:06:01.409Z,1.60
2019-05-05T20:08:39.693Z,1.43
2019-05-05T20:10:55.661Z,2.00
2019-05-05T20:13:22.285Z,2.17
2019-05-05T20:15:50.344Z,2.43
2019-05-05T20:18:16.550Z,1.70
2019-05-05T20:20:44.482Z,2.33
2019-05-05T20:23:10.837Z,1.57
2019-05-05T20:25:36.987Z,1.70
2019-05-05T20:28:03.853Z,2.00
2019-05-05T20:30:30.371Z,2.67
2019-05-05T20:33:10.577Z,1.90
2019-05-05T20:35:44.360Z,1.50
2019-05-05T20:38:14.283Z,1.40
2019-05-05T20:40:44.322Z,2.10
2019-05-05T20:43:10.555Z,2.10
2019-05-05T20:45:36.724Z,2.17
2019-05-05T20:48:04.528Z,1.87
2019-05-05T20:50:31.025Z,1.83
2019-05-05T20:52:57.200Z,1.80
2019-05-05T20:55:25.764Z,2.13
2019-05-05T20:57:53.549Z,2.10
2019-05-05T21:00:19.885Z,1.57
2019-05-05T21:02:46.080Z,1.57
2019-05-05T21:05:14.463Z,1.60
2019-05-05T21:07:40.423Z,2.00
2019-05-05T21:10:07.132Z,2.33
2019-05-05T21:12:41.883Z,2.07
2019-05-05T21:15:01.372Z,2.00
2019-05-05T21:17:27.595Z,1.93
2019-05-05T21:19:53.771Z,1.83
2019-05-05T21:22:30.767Z,1.70
2019-05-05T21:24:57.640Z,1.60
2019-05-05T21:27:24.497Z,2.30
2019-05-05T21:29:51.006Z,1.83
2019-05-05T21:32:17.392Z,1.83
2019-05-05T21:34:44.464Z,2.20
2019-05-05T21:37:10.867Z,1.60
2019-05-05T21:39:37.035Z,1.90
2019-05-05T21:42:04.656Z,1.83
2019-05-05T21:44:31.209Z,1.93
2019-05-05T21:46:59.230Z,2.13
2019-05-05T21:49:25.561Z,2.10
2019-05-05T21:52:05.780Z,2.10
2019-05-05T21:54:38.108Z,2.30
2019-05-05T21:57:13.936Z,2.00
2019-05-05T21:59:52.981Z,2.37
2019-05-05T22:02:08.700Z,2.17
2019-05-05T22:04:34.895Z,2.03
2019-05-05T22:07:01.080Z,2.20
2019-05-05T22:09:27.249Z,1.90
2019-05-05T22:11:54.516Z,2.17
2019-05-05T22:14:20.930Z,2.00
2019-05-05T22:16:47.189Z,2.23
2019-05-05T22:19:14.609Z,2.17
2019-05-05T22:21:43.745Z,2.20
2019-05-05T22:24:15.917Z,2.03
2019-05-05T22:26:44.538Z,2.10
2019-05-05T22:29:11.089Z,2.10
2019-05-05T22:31:37.671Z,2.13
2019-05-05T22:34:05.345Z,2.00
2019-05-05T22:36:33.776Z,2.37
2019-05-05T22:38:59.828Z,2.23
2019-05-05T22:41:26.055Z,2.57
2019-05-05T22:43:52.231Z,2.20
2019-05-05T22:46:18.385Z,2.00
2019-05-05T22:48:44.592Z,2.40
2019-05-05T22:51:10.762Z,2.30
2019-05-05T22:53:36.913Z,2.10
2019-05-05T22:56:04.017Z,2.77
2019-05-05T22:58:30.581Z,2.77
2019-05-05T23:00:56.787Z,2.67
2019-05-05T23:03:24.875Z,2.57
2019-05-05T23:05:55.650Z,2.57
2019-05-05T23:08:24.197Z,2.57
2019-05-05T23:10:49.994Z,2.60
2019-05-05T23:13:16.170Z,2.93
2019-05-05T23:15:47.189Z,2.50
2019-05-05T23:18:20.816Z,3.13
2019-05-05T23:20:50.773Z,2.63
2019-05-05T23:23:18.858Z,2.70
2019-05-05T23:25:46.947Z,2.20
2019-05-05T23:28:14.698Z,2.57
2019-05-05T23:30:42.520Z,2.07
2019-05-05T23:33:09.313Z,2.50
2019-05-05T23:35:35.987Z,2.30
2019-05-05T23:38:03.570Z,1.80
2019-05-05T23:40:29.936Z,2.73
2019-05-05T23:42:56.117Z,2.83
2019-05-05T23:45:24.471Z,2.30
2019-05-05T23:47:50.386Z,2.13
2019-05-05T23:50:16.552Z,2.30
2019-05-05T23:52:44.314Z,2.43
2019-05-05T23:55:10.817Z,2.13
2019-05-05T23:57:36.995Z,2.27
